• Join FlightAware (Why Join?)
  • Login
  • US Flag 
06:36AM EDT


 

Airport Tracker/Info


-or-


 

Live Flight TrackerFlight Track Log ✈ SKW5619 ✈ 11-Jun-2013 ✈ KDEN - KHLN

Flight Track Log - Related Links

Times and Time Zones

All times are in EDT time to prevent confusion due to time zone crossing. See the SKW5619 flight status page for this flight to view local times or setup timezone preferences in your user account.

Time Position Orientation Groundspeed Altitude Reporting Facility
EDT Latitude Longitude Course Direction KTS MPH feet Rate Location/Type
09:22PM 40.2324 -105.0244 324° Northwest  Level Estimated
09:23PM 40.3250 -105.1128 324° Northwest  Level Estimated
09:24PM 40.4174 -105.2015 324° Northwest  Level Estimated
09:25PM 40.5098 -105.2904 324° Northwest  Level Estimated
09:26PM 40.6022 -105.3795 324° Northwest  Level Estimated
09:27PM 40.6944 -105.4689 324° Northwest  Level Estimated
09:28PM 40.7866 -105.5586 324° Northwest  Level Estimated
09:29PM 40.8787 -105.6485 324° Northwest  Level Estimated
09:30PM 40.9708 -105.7386 324° Northwest  Level Estimated
09:31PM 41.0628 -105.8290 323° Northwest  Level Estimated
09:32PM 41.1547 -105.9196 323° Northwest  Level Estimated
09:33PM 41.2465 -106.0105 323° Northwest  Level Estimated
09:34PM 41.3383 -106.1017 323° Northwest  Level Estimated
09:35PM 41.4300 -106.1931 323° Northwest  Level Estimated
09:36PM 41.5216 -106.2848 323° Northwest  Level Estimated
09:37PM 41.6131 -106.3767 323° Northwest  Level Estimated
09:38PM 41.7046 -106.4689 323° Northwest  Level Estimated
09:39PM 41.7960 -106.5613 323° Northwest  Level Estimated
09:40PM 41.8873 -106.6540 323° Northwest  Level Estimated
09:41PM 41.9786 -106.7470 323° Northwest  Level Estimated
09:42PM 42.0697 -106.8403 323° Northwest  Level Estimated
09:43PM 42.1608 -106.9338 323° Northwest  Level Estimated
09:44PM 42.2519 -107.0276 323° Northwest  Level Estimated
09:45PM 42.3428 -107.1216 323° Northwest  Level Estimated
09:46PM 42.4337 -107.2160 323° Northwest  Level Estimated
09:47PM 42.5245 -107.3106 322° Northwest  Level Estimated
09:48PM 42.6152 -107.4054 322° Northwest  Level Estimated
09:49PM 42.7058 -107.5006 322° Northwest  Level Estimated
09:50PM 42.7964 -107.5960 322° Northwest  Level Estimated
09:51PM 42.8869 -107.6917 322° Northwest  Level Estimated
09:52PM 42.9773 -107.7878 322° Northwest  Level Estimated
09:53PM 43.0676 -107.8840 322° Northwest  Level Estimated
09:54PM 43.1578 -107.9806 322° Northwest  Level Estimated
09:55PM 43.2480 -108.0774 322° Northwest  Level Estimated
09:56PM 43.3380 -108.1746 322° Northwest  Level Estimated
09:57PM 43.4280 -108.2720 322° Northwest  Level Estimated
09:58PM 43.5179 -108.3697 322° Northwest  Level Estimated
09:59PM 43.6078 -108.4677 322° Northwest  Level Estimated
10:00PM 43.6975 -108.5660 322° Northwest  Level Estimated
10:01PM 43.7872 -108.6646 322° Northwest  Level Estimated
10:02PM 43.8767 -108.7635 321° Northwest  Level Estimated
10:03PM 43.9662 -108.8627 321° Northwest  Level Estimated
10:04PM 44.0556 -108.9622 321° Northwest  Level Estimated
10:05PM 44.1449 -109.0619 321° Northwest  Level Estimated
10:06PM 44.2341 -109.1620 321° Northwest  Level Estimated
10:07PM 44.3233 -109.2624 321° Northwest  Level Estimated
10:08PM 44.4123 -109.3631 321° Northwest  Level Estimated
10:09PM 44.5013 -109.4641 321° Northwest  Level Estimated
10:10PM 44.5901 -109.5654 321° Northwest  Level Estimated
10:11PM 44.6789 -109.6671 321° Northwest  Level Estimated
10:12PM 44.7676 -109.7690 321° Northwest  Level Estimated
10:13PM 44.8562 -109.8712 321° Northwest  Level Estimated
10:14PM 44.9447 -109.9738 321° Northwest  Level Estimated
10:15PM 45.0331 -110.0767 321° Northwest  Level Estimated
10:16PM 45.1215 -110.1799 321° Northwest  Level Estimated
10:17PM 45.2097 -110.2834 320° Northwest  Level Estimated
10:18PM 45.2978 -110.3872 320° Northwest  Level Estimated
10:19PM 45.3859 -110.4914 320° Northwest  Level Estimated
10:20PM 45.4738 -110.5959 320° Northwest  Level Estimated
10:21PM 45.5617 -110.7007 320° Northwest  Level Estimated
10:22PM 45.6494 -110.8058 320° Northwest  Level Estimated
10:23PM 45.7371 -110.9113 320° Northwest  Level Estimated
10:24PM 45.8246 -111.0171 320° Northwest  Level Estimated
10:25PM 45.9121 -111.1232 320° Northwest  Level Estimated
10:26PM 45.9995 -111.2297 320° Northwest  Level Estimated
10:27PM 46.0867 -111.3365 320° Northwest  Level Estimated
10:28PM 46.1739 -111.4437 320° Northwest  Level Estimated
10:29PM 46.2610 -111.5511 320° Northwest  Level Estimated
10:30PM 46.3479 -111.6590 319° Northwest  Level Estimated
10:31PM 46.4348 -111.7672 319° Northwest  Level Estimated
10:32PM 46.5215 -111.8757 319° Northwest  Level Estimated
10:33PM 46.6068 -111.9827 319° Northwest  Level Estimated
10:34PM 46.6068 -111.9827 180° South  Level Estimated
10:35PM 46.6068 -111.9827 180° South  Level Estimated
10:36PM 46.6068 -111.9827 180° South  Level Estimated
10:37PM 46.6068 -111.9827 180° South  Level Estimated
10:38PM 46.6068 -111.9827 180° South  Level Estimated
10:39PM 46.6068 -111.9827 180° South  Level Estimated
10:40PM 46.6068 -111.9827 180° South  Level Estimated
10:41PM 46.6068 -111.9827 180° South  Level Estimated
10:42PM 46.6068 -111.9827 180° South  Level Estimated
10:43PM 46.6068 -111.9827 180° South  Level Estimated
10:44PM 46.6068 -111.9827 180° South  Level Estimated